sensor_id;sensor_type;location;lat;lon;timestamp;temperature;humidity
983;DHT22;480;48.124;11.578;2023-03-09T00:02:31;10.10;99.90
983;DHT22;480;48.124;11.578;2023-03-09T00:05:17;10.10;99.90
983;DHT22;480;48.124;11.578;2023-03-09T00:07:49;10.20;99.90
983;DHT22;480;48.124;11.578;2023-03-09T00:10:17;10.20;99.90
983;DHT22;480;48.124;11.578;2023-03-09T00:12:58;10.20;99.90
983;DHT22;480;48.124;11.578;2023-03-09T00:15:25;10.30;99.90
983;DHT22;480;48.124;11.578;2023-03-09T00:20:31;10.40;99.90
983;DHT22;480;48.124;11.578;2023-03-09T00:22:59;10.50;99.90
983;DHT22;480;48.124;11.578;2023-03-09T00:25:34;10.50;99.90
983;DHT22;480;48.124;11.578;2023-03-09T00:28:17;10.50;99.90
983;DHT22;480;48.124;11.578;2023-03-09T00:30:44;10.50;99.90
983;DHT22;480;48.124;11.578;2023-03-09T00:33:15;10.50;99.90
983;DHT22;480;48.124;11.578;2023-03-09T00:35:44;10.50;99.90
983;DHT22;480;48.124;11.578;2023-03-09T00:38:11;10.60;99.90
983;DHT22;480;48.124;11.578;2023-03-09T00:41:02;10.70;99.90
983;DHT22;480;48.124;11.578;2023-03-09T00:43:32;10.60;99.90
983;DHT22;480;48.124;11.578;2023-03-09T00:46:00;10.60;99.90
983;DHT22;480;48.124;11.578;2023-03-09T00:48:43;10.80;99.90
983;DHT22;480;48.124;11.578;2023-03-09T00:51:11;10.90;99.90
983;DHT22;480;48.124;11.578;2023-03-09T00:53:39;10.90;99.90
983;DHT22;480;48.124;11.578;2023-03-09T00:58:42;11.00;99.90
983;DHT22;480;48.124;11.578;2023-03-09T01:01:11;11.00;99.90
983;DHT22;480;48.124;11.578;2023-03-09T01:03:40;11.00;99.90
983;DHT22;480;48.124;11.578;2023-03-09T01:06:29;11.00;99.90
983;DHT22;480;48.124;11.578;2023-03-09T01:08:56;11.10;99.90
983;DHT22;480;48.124;11.578;2023-03-09T01:11:26;11.20;99.90
983;DHT22;480;48.124;11.578;2023-03-09T01:14:09;11.20;99.90
983;DHT22;480;48.124;11.578;2023-03-09T01:16:39;11.30;99.90
983;DHT22;480;48.124;11.578;2023-03-09T01:19:06;11.30;99.90
983;DHT22;480;48.124;11.578;2023-03-09T01:21:35;11.30;99.90
983;DHT22;480;48.124;11.578;2023-03-09T01:24:02;11.30;99.90
983;DHT22;480;48.124;11.578;2023-03-09T01:26:30;11.30;99.90
983;DHT22;480;48.124;11.578;2023-03-09T01:28:59;11.30;99.90
983;DHT22;480;48.124;11.578;2023-03-09T01:31:27;11.30;99.90
983;DHT22;480;48.124;11.578;2023-03-09T01:36:21;11.20;99.90
983;DHT22;480;48.124;11.578;2023-03-09T01:38:51;11.20;99.90
983;DHT22;480;48.124;11.578;2023-03-09T01:41:22;11.20;99.90
983;DHT22;480;48.124;11.578;2023-03-09T01:43:50;11.40;99.90
983;DHT22;480;48.124;11.578;2023-03-09T01:46:36;11.30;99.90
983;DHT22;480;48.124;11.578;2023-03-09T01:49:10;11.30;99.90
983;DHT22;480;48.124;11.578;2023-03-09T01:51:43;11.40;99.90
983;DHT22;480;48.124;11.578;2023-03-09T01:54:30;11.40;99.90
983;DHT22;480;48.124;11.578;2023-03-09T01:57:06;11.40;99.90
983;DHT22;480;48.124;11.578;2023-03-09T01:59:35;11.50;99.90
983;DHT22;480;48.124;11.578;2023-03-09T02:02:06;11.50;99.90
983;DHT22;480;48.124;11.578;2023-03-09T02:04:38;11.50;99.90
983;DHT22;480;48.124;11.578;2023-03-09T02:07:10;11.50;99.90
983;DHT22;480;48.124;11.578;2023-03-09T02:09:44;11.60;99.90
983;DHT22;480;48.124;11.578;2023-03-09T02:12:18;11.60;99.90
983;DHT22;480;48.124;11.578;2023-03-09T02:14:47;11.60;99.90
983;DHT22;480;48.124;11.578;2023-03-09T02:17:15;11.60;99.90
983;DHT22;480;48.124;11.578;2023-03-09T02:20:14;11.60;99.90
983;DHT22;480;48.124;11.578;2023-03-09T02:22:45;11.50;99.90
983;DHT22;480;48.124;11.578;2023-03-09T02:25:23;11.50;99.90
983;DHT22;480;48.124;11.578;2023-03-09T02:27:57;11.60;99.90
983;DHT22;480;48.124;11.578;2023-03-09T02:30:30;11.60;99.90
983;DHT22;480;48.124;11.578;2023-03-09T02:33:07;11.50;99.90
983;DHT22;480;48.124;11.578;2023-03-09T02:35:34;11.60;99.90
983;DHT22;480;48.124;11.578;2023-03-09T02:38:12;11.20;99.90
983;DHT22;480;48.124;11.578;2023-03-09T02:40:41;11.10;99.90
983;DHT22;480;48.124;11.578;2023-03-09T02:43:11;11.00;99.90
983;DHT22;480;48.124;11.578;2023-03-09T02:45:41;11.10;99.90
983;DHT22;480;48.124;11.578;2023-03-09T02:48:11;11.00;99.90
983;DHT22;480;48.124;11.578;2023-03-09T02:50:38;10.80;99.90
983;DHT22;480;48.124;11.578;2023-03-09T02:53:06;10.60;99.90
983;DHT22;480;48.124;11.578;2023-03-09T02:55:34;10.40;99.90
983;DHT22;480;48.124;11.578;2023-03-09T02:58:01;10.10;99.90
983;DHT22;480;48.124;11.578;2023-03-09T03:00:30;9.90;99.90
983;DHT22;480;48.124;11.578;2023-03-09T03:03:00;9.70;99.90
983;DHT22;480;48.124;11.578;2023-03-09T03:05:28;9.40;99.90
983;DHT22;480;48.124;11.578;2023-03-09T03:08:02;9.30;99.90
983;DHT22;480;48.124;11.578;2023-03-09T03:10:32;9.30;99.90
983;DHT22;480;48.124;11.578;2023-03-09T03:13:03;9.20;99.90
983;DHT22;480;48.124;11.578;2023-03-09T03:15:32;9.10;99.90
983;DHT22;480;48.124;11.578;2023-03-09T03:17:59;9.00;99.90
983;DHT22;480;48.124;11.578;2023-03-09T03:20:26;9.00;99.90
983;DHT22;480;48.124;11.578;2023-03-09T03:23:00;9.00;99.90
983;DHT22;480;48.124;11.578;2023-03-09T03:25:27;8.90;99.90
983;DHT22;480;48.124;11.578;2023-03-09T03:27:54;8.90;99.90
983;DHT22;480;48.124;11.578;2023-03-09T03:30:22;8.80;99.90
983;DHT22;480;48.124;11.578;2023-03-09T03:32:51;8.80;99.90
983;DHT22;480;48.124;11.578;2023-03-09T03:35:19;8.90;99.90
983;DHT22;480;48.124;11.578;2023-03-09T03:37:46;8.90;99.90
983;DHT22;480;48.124;11.578;2023-03-09T03:40:14;9.00;99.90
983;DHT22;480;48.124;11.578;2023-03-09T03:42:46;9.00;99.90
983;DHT22;480;48.124;11.578;2023-03-09T03:45:14;9.00;99.90
983;DHT22;480;48.124;11.578;2023-03-09T03:47:42;9.00;99.90
983;DHT22;480;48.124;11.578;2023-03-09T03:50:12;9.10;99.90
983;DHT22;480;48.124;11.578;2023-03-09T03:55:12;9.00;99.90
983;DHT22;480;48.124;11.578;2023-03-09T03:57:44;9.10;99.90
983;DHT22;480;48.124;11.578;2023-03-09T04:00:18;9.10;99.90
983;DHT22;480;48.124;11.578;2023-03-09T04:02:50;9.20;99.90
983;DHT22;480;48.124;11.578;2023-03-09T04:05:26;9.20;99.90
983;DHT22;480;48.124;11.578;2023-03-09T04:07:53;9.20;99.90
983;DHT22;480;48.124;11.578;2023-03-09T04:10:20;9.30;99.90
983;DHT22;480;48.124;11.578;2023-03-09T04:12:49;9.40;99.90
983;DHT22;480;48.124;11.578;2023-03-09T04:15:17;9.40;99.90
983;DHT22;480;48.124;11.578;2023-03-09T04:17:48;9.30;99.90
983;DHT22;480;48.124;11.578;2023-03-09T04:20:17;9.30;99.90
983;DHT22;480;48.124;11.578;2023-03-09T04:22:53;9.40;99.90
983;DHT22;480;48.124;11.578;2023-03-09T04:25:23;9.40;99.90
983;DHT22;480;48.124;11.578;2023-03-09T04:27:53;9.30;99.90
983;DHT22;480;48.124;11.578;2023-03-09T04:30:24;9.30;99.90
983;DHT22;480;48.124;11.578;2023-03-09T04:32:53;9.40;99.90
983;DHT22;480;48.124;11.578;2023-03-09T04:35:24;9.30;99.90
983;DHT22;480;48.124;11.578;2023-03-09T04:38:00;9.40;99.90
983;DHT22;480;48.124;11.578;2023-03-09T04:40:28;9.40;99.90
983;DHT22;480;48.124;11.578;2023-03-09T04:42:57;9.40;99.90
983;DHT22;480;48.124;11.578;2023-03-09T04:45:25;9.40;99.90
983;DHT22;480;48.124;11.578;2023-03-09T04:47:57;9.40;99.90
983;DHT22;480;48.124;11.578;2023-03-09T04:50:33;9.40;99.90
983;DHT22;480;48.124;11.578;2023-03-09T04:53:02;9.40;99.90
983;DHT22;480;48.124;11.578;2023-03-09T04:55:30;9.30;99.90
983;DHT22;480;48.124;11.578;2023-03-09T04:58:03;9.30;99.90
983;DHT22;480;48.124;11.578;2023-03-09T05:00:33;9.30;99.90
983;DHT22;480;48.124;11.578;2023-03-09T05:03:02;9.30;99.90
983;DHT22;480;48.124;11.578;2023-03-09T05:05:30;9.30;99.90
983;DHT22;480;48.124;11.578;2023-03-09T05:07:57;9.20;99.90
983;DHT22;480;48.124;11.578;2023-03-09T05:10:26;9.10;99.90
983;DHT22;480;48.124;11.578;2023-03-09T05:12:53;9.20;99.90
983;DHT22;480;48.124;11.578;2023-03-09T05:15:21;9.00;99.90
983;DHT22;480;48.124;11.578;2023-03-09T05:17:48;8.90;99.90
983;DHT22;480;48.124;11.578;2023-03-09T05:20:16;8.80;99.90
983;DHT22;480;48.124;11.578;2023-03-09T05:22:53;8.80;99.90
983;DHT22;480;48.124;11.578;2023-03-09T05:25:21;8.70;99.90
983;DHT22;480;48.124;11.578;2023-03-09T05:27:54;8.70;99.90
983;DHT22;480;48.124;11.578;2023-03-09T05:30:22;8.80;99.90
983;DHT22;480;48.124;11.578;2023-03-09T05:32:50;8.80;99.90
983;DHT22;480;48.124;11.578;2023-03-09T05:35:17;8.70;99.90
983;DHT22;480;48.124;11.578;2023-03-09T05:37:44;8.70;99.90
983;DHT22;480;48.124;11.578;2023-03-09T05:40:12;8.70;99.90
983;DHT22;480;48.124;11.578;2023-03-09T05:42:45;8.60;99.90
983;DHT22;480;48.124;11.578;2023-03-09T05:45:15;8.60;99.90
983;DHT22;480;48.124;11.578;2023-03-09T05:47:42;8.60;99.90
983;DHT22;480;48.124;11.578;2023-03-09T05:50:10;8.60;99.90
983;DHT22;480;48.124;11.578;2023-03-09T05:52:38;8.50;99.90
983;DHT22;480;48.124;11.578;2023-03-09T05:55:08;8.50;99.90
983;DHT22;480;48.124;11.578;2023-03-09T05:57:37;8.50;99.90
983;DHT22;480;48.124;11.578;2023-03-09T06:00:05;8.40;99.90
983;DHT22;480;48.124;11.578;2023-03-09T06:02:37;8.30;99.90
983;DHT22;480;48.124;11.578;2023-03-09T06:05:05;8.30;99.90
983;DHT22;480;48.124;11.578;2023-03-09T06:07:32;8.30;99.90
983;DHT22;480;48.124;11.578;2023-03-09T06:10:05;8.30;99.90
983;DHT22;480;48.124;11.578;2023-03-09T06:12:33;8.30;99.90
983;DHT22;480;48.124;11.578;2023-03-09T06:15:02;8.30;99.90
983;DHT22;480;48.124;11.578;2023-03-09T06:17:29;8.20;99.90
983;DHT22;480;48.124;11.578;2023-03-09T06:20:01;8.20;99.90
983;DHT22;480;48.124;11.578;2023-03-09T06:22:31;8.20;99.90
983;DHT22;480;48.124;11.578;2023-03-09T06:24:58;8.20;99.90
983;DHT22;480;48.124;11.578;2023-03-09T06:27:25;8.20;99.90
983;DHT22;480;48.124;11.578;2023-03-09T06:29:57;8.30;99.90
983;DHT22;480;48.124;11.578;2023-03-09T06:32:24;8.30;99.90
983;DHT22;480;48.124;11.578;2023-03-09T06:34:53;8.30;99.90
983;DHT22;480;48.124;11.578;2023-03-09T06:37:25;8.30;99.90
983;DHT22;480;48.124;11.578;2023-03-09T06:39:52;8.20;99.90
983;DHT22;480;48.124;11.578;2023-03-09T06:42:19;8.30;99.90
983;DHT22;480;48.124;11.578;2023-03-09T06:44:47;8.30;99.90
983;DHT22;480;48.124;11.578;2023-03-09T06:47:16;8.30;99.90
983;DHT22;480;48.124;11.578;2023-03-09T06:49:44;8.30;99.90
983;DHT22;480;48.124;11.578;2023-03-09T06:52:12;8.50;99.90
983;DHT22;480;48.124;11.578;2023-03-09T06:54:41;8.40;99.90
983;DHT22;480;48.124;11.578;2023-03-09T06:57:08;8.50;99.90
983;DHT22;480;48.124;11.578;2023-03-09T06:59:38;8.50;99.90
983;DHT22;480;48.124;11.578;2023-03-09T07:02:15;8.50;99.90
983;DHT22;480;48.124;11.578;2023-03-09T07:04:42;8.50;99.90
983;DHT22;480;48.124;11.578;2023-03-09T07:07:12;8.50;99.90
983;DHT22;480;48.124;11.578;2023-03-09T07:09:42;8.50;99.90
983;DHT22;480;48.124;11.578;2023-03-09T07:12:09;8.50;99.90
983;DHT22;480;48.124;11.578;2023-03-09T07:14:39;8.60;99.90
983;DHT22;480;48.124;11.578;2023-03-09T07:17:13;8.70;99.90
983;DHT22;480;48.124;11.578;2023-03-09T07:19:43;8.70;99.90
983;DHT22;480;48.124;11.578;2023-03-09T07:22:10;8.70;99.90
983;DHT22;480;48.124;11.578;2023-03-09T07:24:38;8.70;99.90
983;DHT22;480;48.124;11.578;2023-03-09T07:27:06;8.70;99.90
983;DHT22;480;48.124;11.578;2023-03-09T07:29:34;8.80;99.90
983;DHT22;480;48.124;11.578;2023-03-09T07:32:05;8.90;99.90
983;DHT22;480;48.124;11.578;2023-03-09T07:34:33;8.90;99.90
983;DHT22;480;48.124;11.578;2023-03-09T07:37:00;8.90;99.90
983;DHT22;480;48.124;11.578;2023-03-09T07:39:27;8.90;99.90
983;DHT22;480;48.124;11.578;2023-03-09T07:41:55;9.00;99.90
983;DHT22;480;48.124;11.578;2023-03-09T07:44:23;9.10;99.90
983;DHT22;480;48.124;11.578;2023-03-09T07:46:51;9.20;99.90
983;DHT22;480;48.124;11.578;2023-03-09T07:49:18;9.30;99.90
983;DHT22;480;48.124;11.578;2023-03-09T07:51:45;9.40;99.90
983;DHT22;480;48.124;11.578;2023-03-09T07:54:22;9.40;99.90
983;DHT22;480;48.124;11.578;2023-03-09T07:56:49;9.40;99.90
983;DHT22;480;48.124;11.578;2023-03-09T07:59:17;9.50;99.90
983;DHT22;480;48.124;11.578;2023-03-09T08:01:47;9.60;99.90
983;DHT22;480;48.124;11.578;2023-03-09T08:04:16;9.60;99.90
983;DHT22;480;48.124;11.578;2023-03-09T08:06:44;9.70;99.90
983;DHT22;480;48.124;11.578;2023-03-09T08:09:13;9.70;99.90
983;DHT22;480;48.124;11.578;2023-03-09T08:11:41;9.70;99.90
983;DHT22;480;48.124;11.578;2023-03-09T08:14:09;9.80;99.90
983;DHT22;480;48.124;11.578;2023-03-09T08:16:36;9.90;99.90
983;DHT22;480;48.124;11.578;2023-03-09T08:19:06;9.90;99.90
983;DHT22;480;48.124;11.578;2023-03-09T08:21:33;9.90;99.90
983;DHT22;480;48.124;11.578;2023-03-09T08:24:01;10.00;99.90
983;DHT22;480;48.124;11.578;2023-03-09T08:26:28;10.00;99.90
983;DHT22;480;48.124;11.578;2023-03-09T08:28:55;10.20;99.90
983;DHT22;480;48.124;11.578;2023-03-09T08:31:22;10.20;99.90
983;DHT22;480;48.124;11.578;2023-03-09T08:33:50;10.30;99.90
983;DHT22;480;48.124;11.578;2023-03-09T08:36:19;10.30;99.90
983;DHT22;480;48.124;11.578;2023-03-09T08:38:48;10.40;99.90
983;DHT22;480;48.124;11.578;2023-03-09T08:41:17;10.30;99.90
983;DHT22;480;48.124;11.578;2023-03-09T08:43:45;10.30;99.90
983;DHT22;480;48.124;11.578;2023-03-09T08:46:13;10.30;99.90
983;DHT22;480;48.124;11.578;2023-03-09T08:48:40;10.30;99.90
983;DHT22;480;48.124;11.578;2023-03-09T08:51:09;10.40;99.90
983;DHT22;480;48.124;11.578;2023-03-09T08:53:39;10.40;99.90
983;DHT22;480;48.124;11.578;2023-03-09T08:56:08;10.50;99.90
983;DHT22;480;48.124;11.578;2023-03-09T08:58:38;10.60;99.90
983;DHT22;480;48.124;11.578;2023-03-09T09:01:07;10.70;99.90
983;DHT22;480;48.124;11.578;2023-03-09T09:03:35;10.70;99.90
983;DHT22;480;48.124;11.578;2023-03-09T09:06:06;10.90;99.90
983;DHT22;480;48.124;11.578;2023-03-09T09:08:33;10.90;99.90
983;DHT22;480;48.124;11.578;2023-03-09T09:11:06;11.10;99.90
983;DHT22;480;48.124;11.578;2023-03-09T09:13:34;11.10;99.90
983;DHT22;480;48.124;11.578;2023-03-09T09:16:03;11.00;99.90
983;DHT22;480;48.124;11.578;2023-03-09T09:18:31;11.00;99.90
983;DHT22;480;48.124;11.578;2023-03-09T09:20:58;11.10;99.90
983;DHT22;480;48.124;11.578;2023-03-09T09:23:28;11.30;99.90
983;DHT22;480;48.124;11.578;2023-03-09T09:25:55;11.50;99.90
983;DHT22;480;48.124;11.578;2023-03-09T09:28:24;11.50;99.90
983;DHT22;480;48.124;11.578;2023-03-09T09:30:54;11.60;99.90
983;DHT22;480;48.124;11.578;2023-03-09T09:33:24;11.50;99.90
983;DHT22;480;48.124;11.578;2023-03-09T09:35:56;11.50;99.90
983;DHT22;480;48.124;11.578;2023-03-09T09:38:25;11.50;99.90
983;DHT22;480;48.124;11.578;2023-03-09T09:40:54;11.50;99.90
983;DHT22;480;48.124;11.578;2023-03-09T09:43:29;11.30;99.90
983;DHT22;480;48.124;11.578;2023-03-09T09:45:59;11.30;99.90
983;DHT22;480;48.124;11.578;2023-03-09T09:48:29;11.30;99.90
983;DHT22;480;48.124;11.578;2023-03-09T09:51:09;11.40;99.90
983;DHT22;480;48.124;11.578;2023-03-09T09:53:43;11.60;99.90
983;DHT22;480;48.124;11.578;2023-03-09T09:56:18;11.70;99.90
983;DHT22;480;48.124;11.578;2023-03-09T09:58:53;11.70;99.90
983;DHT22;480;48.124;11.578;2023-03-09T10:01:25;11.70;99.90
983;DHT22;480;48.124;11.578;2023-03-09T10:03:59;11.70;99.90
983;DHT22;480;48.124;11.578;2023-03-09T10:06:29;11.70;99.90
983;DHT22;480;48.124;11.578;2023-03-09T10:08:59;11.80;99.90
983;DHT22;480;48.124;11.578;2023-03-09T10:11:30;11.80;99.90
983;DHT22;480;48.124;11.578;2023-03-09T10:14:04;11.80;99.90
983;DHT22;480;48.124;11.578;2023-03-09T10:16:38;11.70;99.90
983;DHT22;480;48.124;11.578;2023-03-09T10:19:17;11.60;99.90
983;DHT22;480;48.124;11.578;2023-03-09T10:21:51;11.60;99.90
983;DHT22;480;48.124;11.578;2023-03-09T10:24:52;11.60;99.90
983;DHT22;480;48.124;11.578;2023-03-09T10:27:22;11.70;99.90
983;DHT22;480;48.124;11.578;2023-03-09T10:30:17;11.70;99.90
983;DHT22;480;48.124;11.578;2023-03-09T10:32:53;11.50;99.90
983;DHT22;480;48.124;11.578;2023-03-09T10:35:33;11.50;99.90
983;DHT22;480;48.124;11.578;2023-03-09T10:38:07;11.50;99.90
983;DHT22;480;48.124;11.578;2023-03-09T10:40:44;11.50;99.90
983;DHT22;480;48.124;11.578;2023-03-09T10:43:19;11.50;99.90
983;DHT22;480;48.124;11.578;2023-03-09T10:45:54;11.50;99.90
983;DHT22;480;48.124;11.578;2023-03-09T10:48:24;11.50;99.90
983;DHT22;480;48.124;11.578;2023-03-09T10:50:58;11.50;99.90
983;DHT22;480;48.124;11.578;2023-03-09T10:53:33;11.60;99.90
983;DHT22;480;48.124;11.578;2023-03-09T10:56:12;11.60;99.90
983;DHT22;480;48.124;11.578;2023-03-09T10:58:42;11.50;99.90
983;DHT22;480;48.124;11.578;2023-03-09T11:01:27;11.50;99.90
983;DHT22;480;48.124;11.578;2023-03-09T11:03:56;11.60;99.90
983;DHT22;480;48.124;11.578;2023-03-09T11:06:42;11.60;99.90
983;DHT22;480;48.124;11.578;2023-03-09T11:09:13;11.60;99.90
983;DHT22;480;48.124;11.578;2023-03-09T11:11:42;11.70;99.90
983;DHT22;480;48.124;11.578;2023-03-09T11:14:24;11.70;99.90
983;DHT22;480;48.124;11.578;2023-03-09T11:16:59;11.80;99.90
983;DHT22;480;48.124;11.578;2023-03-09T11:19:28;11.90;99.90
983;DHT22;480;48.124;11.578;2023-03-09T11:22:10;12.10;99.90
983;DHT22;480;48.124;11.578;2023-03-09T11:24:45;12.40;99.90
983;DHT22;480;48.124;11.578;2023-03-09T11:29:48;12.50;99.90
983;DHT22;480;48.124;11.578;2023-03-09T11:32:19;12.40;99.90
983;DHT22;480;48.124;11.578;2023-03-09T11:34:48;12.40;99.90
983;DHT22;480;48.124;11.578;2023-03-09T11:37:22;12.30;99.90
983;DHT22;480;48.124;11.578;2023-03-09T11:39:56;12.60;99.90
983;DHT22;480;48.124;11.578;2023-03-09T11:42:32;12.90;99.90
983;DHT22;480;48.124;11.578;2023-03-09T11:45:06;13.10;99.90
983;DHT22;480;48.124;11.578;2023-03-09T11:47:43;13.10;99.90
983;DHT22;480;48.124;11.578;2023-03-09T11:50:15;13.20;99.90
983;DHT22;480;48.124;11.578;2023-03-09T11:52:48;13.10;99.90
983;DHT22;480;48.124;11.578;2023-03-09T11:55:25;13.20;99.90
983;DHT22;480;48.124;11.578;2023-03-09T11:57:59;13.10;99.90
983;DHT22;480;48.124;11.578;2023-03-09T12:00:28;13.10;99.90
983;DHT22;480;48.124;11.578;2023-03-09T12:03:02;13.10;99.90
983;DHT22;480;48.124;11.578;2023-03-09T12:05:38;13.20;99.90
983;DHT22;480;48.124;11.578;2023-03-09T12:08:13;13.30;99.90
983;DHT22;480;48.124;11.578;2023-03-09T12:10:52;13.20;99.90
983;DHT22;480;48.124;11.578;2023-03-09T12:13:24;13.20;99.90
983;DHT22;480;48.124;11.578;2023-03-09T12:16:04;13.30;99.90
983;DHT22;480;48.124;11.578;2023-03-09T12:19:00;13.40;99.90
983;DHT22;480;48.124;11.578;2023-03-09T12:21:33;13.40;99.90
983;DHT22;480;48.124;11.578;2023-03-09T12:24:25;13.30;99.90
983;DHT22;480;48.124;11.578;2023-03-09T12:27:02;13.30;99.90
983;DHT22;480;48.124;11.578;2023-03-09T12:29:34;13.20;99.90
983;DHT22;480;48.124;11.578;2023-03-09T12:32:41;13.30;99.90
983;DHT22;480;48.124;11.578;2023-03-09T12:38:36;13.80;99.90
983;DHT22;480;48.124;11.578;2023-03-09T12:41:24;13.80;99.90
983;DHT22;480;48.124;11.578;2023-03-09T12:43:52;14.10;99.90
983;DHT22;480;48.124;11.578;2023-03-09T12:46:49;14.00;99.90
983;DHT22;480;48.124;11.578;2023-03-09T12:49:25;14.00;99.90
983;DHT22;480;48.124;11.578;2023-03-09T12:52:19;14.10;99.90
983;DHT22;480;48.124;11.578;2023-03-09T12:55:15;14.10;99.90
983;DHT22;480;48.124;11.578;2023-03-09T12:57:43;13.90;99.90
983;DHT22;480;48.124;11.578;2023-03-09T13:00:30;14.10;99.90
983;DHT22;480;48.124;11.578;2023-03-09T13:03:03;14.10;99.90
983;DHT22;480;48.124;11.578;2023-03-09T13:05:40;13.90;99.90
983;DHT22;480;48.124;11.578;2023-03-09T13:08:29;13.80;99.90
983;DHT22;480;48.124;11.578;2023-03-09T13:11:26;13.80;99.90
983;DHT22;480;48.124;11.578;2023-03-09T13:14:02;13.70;99.90
983;DHT22;480;48.124;11.578;2023-03-09T13:16:52;13.50;99.90
983;DHT22;480;48.124;11.578;2023-03-09T13:19:39;13.40;99.90
983;DHT22;480;48.124;11.578;2023-03-09T13:25:35;13.70;99.90
983;DHT22;480;48.124;11.578;2023-03-09T13:31:22;14.30;99.90
983;DHT22;480;48.124;11.578;2023-03-09T13:33:56;14.50;99.90
983;DHT22;480;48.124;11.578;2023-03-09T13:36:26;14.70;99.90
983;DHT22;480;48.124;11.578;2023-03-09T13:39:01;14.50;99.90
983;DHT22;480;48.124;11.578;2023-03-09T13:41:32;14.40;99.90
983;DHT22;480;48.124;11.578;2023-03-09T13:44:00;14.40;99.90
983;DHT22;480;48.124;11.578;2023-03-09T13:46:30;14.30;99.90
983;DHT22;480;48.124;11.578;2023-03-09T13:49:02;14.40;99.90
983;DHT22;480;48.124;11.578;2023-03-09T13:51:43;14.40;99.90
983;DHT22;480;48.124;11.578;2023-03-09T13:54:36;14.50;99.90
983;DHT22;480;48.124;11.578;2023-03-09T13:57:15;14.50;99.90
983;DHT22;480;48.124;11.578;2023-03-09T13:59:48;14.80;99.90
983;DHT22;480;48.124;11.578;2023-03-09T14:02:17;14.70;99.90
983;DHT22;480;48.124;11.578;2023-03-09T14:04:46;14.60;99.90
983;DHT22;480;48.124;11.578;2023-03-09T14:07:16;14.50;99.90
983;DHT22;480;48.124;11.578;2023-03-09T14:09:53;14.20;99.90
983;DHT22;480;48.124;11.578;2023-03-09T14:12:26;14.10;99.90
983;DHT22;480;48.124;11.578;2023-03-09T14:14:56;14.10;99.90
983;DHT22;480;48.124;11.578;2023-03-09T14:17:26;14.00;99.90
983;DHT22;480;48.124;11.578;2023-03-09T14:19:54;13.90;99.90
983;DHT22;480;48.124;11.578;2023-03-09T14:22:27;13.80;99.90
983;DHT22;480;48.124;11.578;2023-03-09T14:24:54;13.70;99.90
983;DHT22;480;48.124;11.578;2023-03-09T14:27:25;13.50;99.90
983;DHT22;480;48.124;11.578;2023-03-09T14:29:55;13.50;99.90
983;DHT22;480;48.124;11.578;2023-03-09T14:32:26;13.50;99.90
983;DHT22;480;48.124;11.578;2023-03-09T14:34:58;13.50;99.90
983;DHT22;480;48.124;11.578;2023-03-09T14:37:51;13.50;99.90
983;DHT22;480;48.124;11.578;2023-03-09T14:40:24;13.50;99.90
983;DHT22;480;48.124;11.578;2023-03-09T14:42:53;13.40;99.90
983;DHT22;480;48.124;11.578;2023-03-09T14:45:23;13.40;99.90
983;DHT22;480;48.124;11.578;2023-03-09T14:47:52;13.60;99.90
983;DHT22;480;48.124;11.578;2023-03-09T14:50:31;13.80;99.90
983;DHT22;480;48.124;11.578;2023-03-09T14:52:58;14.10;99.90
983;DHT22;480;48.124;11.578;2023-03-09T14:55:25;14.00;99.90
983;DHT22;480;48.124;11.578;2023-03-09T14:57:54;14.10;99.90
983;DHT22;480;48.124;11.578;2023-03-09T15:00:24;14.30;99.90
983;DHT22;480;48.124;11.578;2023-03-09T15:02:56;14.40;99.90
983;DHT22;480;48.124;11.578;2023-03-09T15:05:25;14.40;99.90
983;DHT22;480;48.124;11.578;2023-03-09T15:07:56;14.40;99.90
983;DHT22;480;48.124;11.578;2023-03-09T15:10:24;14.20;99.90
983;DHT22;480;48.124;11.578;2023-03-09T15:12:55;14.10;99.90
983;DHT22;480;48.124;11.578;2023-03-09T15:15:24;14.00;99.90
983;DHT22;480;48.124;11.578;2023-03-09T15:17:52;14.20;99.90
983;DHT22;480;48.124;11.578;2023-03-09T15:20:23;14.20;99.90
983;DHT22;480;48.124;11.578;2023-03-09T15:22:53;14.50;99.90
983;DHT22;480;48.124;11.578;2023-03-09T15:25:21;14.60;99.90
983;DHT22;480;48.124;11.578;2023-03-09T15:27:49;14.70;99.90
983;DHT22;480;48.124;11.578;2023-03-09T15:30:18;14.70;99.90
983;DHT22;480;48.124;11.578;2023-03-09T15:32:46;14.60;99.90
983;DHT22;480;48.124;11.578;2023-03-09T15:35:15;14.40;99.90
983;DHT22;480;48.124;11.578;2023-03-09T15:37:42;14.30;99.90
983;DHT22;480;48.124;11.578;2023-03-09T15:40:13;14.10;99.90
983;DHT22;480;48.124;11.578;2023-03-09T15:42:41;14.00;99.90
983;DHT22;480;48.124;11.578;2023-03-09T15:45:09;13.80;99.90
983;DHT22;480;48.124;11.578;2023-03-09T15:47:40;13.60;99.90
983;DHT22;480;48.124;11.578;2023-03-09T15:50:09;13.60;99.90
983;DHT22;480;48.124;11.578;2023-03-09T15:52:37;13.60;99.90
983;DHT22;480;48.124;11.578;2023-03-09T15:55:06;13.60;99.90
983;DHT22;480;48.124;11.578;2023-03-09T15:57:34;13.60;99.90
983;DHT22;480;48.124;11.578;2023-03-09T16:00:02;13.50;99.90
983;DHT22;480;48.124;11.578;2023-03-09T16:02:32;13.50;99.90
983;DHT22;480;48.124;11.578;2023-03-09T16:05:00;13.50;99.90
983;DHT22;480;48.124;11.578;2023-03-09T16:07:27;13.40;99.90
983;DHT22;480;48.124;11.578;2023-03-09T16:09:56;13.30;99.90
983;DHT22;480;48.124;11.578;2023-03-09T16:12:24;13.30;99.90
983;DHT22;480;48.124;11.578;2023-03-09T16:14:51;13.20;99.90
983;DHT22;480;48.124;11.578;2023-03-09T16:17:18;13.20;99.90
983;DHT22;480;48.124;11.578;2023-03-09T16:19:46;13.20;99.90
983;DHT22;480;48.124;11.578;2023-03-09T16:22:14;13.20;99.90
983;DHT22;480;48.124;11.578;2023-03-09T16:24:41;13.20;99.90
983;DHT22;480;48.124;11.578;2023-03-09T16:27:09;13.20;99.90
983;DHT22;480;48.124;11.578;2023-03-09T16:29:36;13.20;99.90
983;DHT22;480;48.124;11.578;2023-03-09T16:32:04;13.30;99.90
983;DHT22;480;48.124;11.578;2023-03-09T16:34:31;13.20;99.90
983;DHT22;480;48.124;11.578;2023-03-09T16:36:59;13.10;99.90
983;DHT22;480;48.124;11.578;2023-03-09T16:39:32;13.00;99.90
983;DHT22;480;48.124;11.578;2023-03-09T16:42:03;13.00;99.90
983;DHT22;480;48.124;11.578;2023-03-09T16:44:30;12.90;99.90
983;DHT22;480;48.124;11.578;2023-03-09T16:46:58;12.90;99.90
983;DHT22;480;48.124;11.578;2023-03-09T16:49:26;12.80;99.90
983;DHT22;480;48.124;11.578;2023-03-09T16:51:56;12.80;99.90
983;DHT22;480;48.124;11.578;2023-03-09T16:54:23;12.90;99.90
983;DHT22;480;48.124;11.578;2023-03-09T16:56:52;12.80;99.90
983;DHT22;480;48.124;11.578;2023-03-09T16:59:20;12.80;99.90
983;DHT22;480;48.124;11.578;2023-03-09T17:01:52;12.70;99.90
983;DHT22;480;48.124;11.578;2023-03-09T17:04:20;12.60;99.90
983;DHT22;480;48.124;11.578;2023-03-09T17:06:47;12.60;99.90
983;DHT22;480;48.124;11.578;2023-03-09T17:09:15;12.40;99.90
983;DHT22;480;48.124;11.578;2023-03-09T17:11:43;12.40;99.90
983;DHT22;480;48.124;11.578;2023-03-09T17:14:12;12.30;99.90